createdAt,value
2022-11-03T00:00:10.065Z,8.75
2022-11-03T00:02:39.028Z,8.74
2022-11-03T00:05:25.905Z,8.73
2022-11-03T00:07:52.369Z,8.71
2022-11-03T00:10:21.271Z,8.67
2022-11-03T00:12:48.418Z,8.64
2022-11-03T00:15:14.817Z,8.61
2022-11-03T00:17:44.785Z,8.56
2022-11-03T00:20:11.498Z,8.57
2022-11-03T00:22:40.646Z,8.56
2022-11-03T00:25:08.703Z,8.57
2022-11-03T00:27:35.090Z,8.59
2022-11-03T00:30:01.607Z,8.61
2022-11-03T00:32:28.188Z,8.63
2022-11-03T00:34:54.666Z,8.66
2022-11-03T00:37:21.125Z,8.69
2022-11-03T00:39:47.580Z,8.70
2022-11-03T00:42:14.039Z,8.69
2022-11-03T00:44:45.818Z,8.71
2022-11-03T00:47:17.839Z,8.71
2022-11-03T00:49:51.928Z,8.72
2022-11-03T00:52:28.793Z,8.72
2022-11-03T00:54:55.567Z,8.73
2022-11-03T00:57:22.491Z,8.72
2022-11-03T00:59:48.958Z,8.71
2022-11-03T01:02:17.865Z,8.71
2022-11-03T01:05:03.192Z,8.71
2022-11-03T01:07:30.028Z,8.70
2022-11-03T01:09:56.815Z,8.69
2022-11-03T01:12:23.342Z,8.69
2022-11-03T01:14:52.856Z,8.69
2022-11-03T01:17:25.138Z,8.68
2022-11-03T01:19:52.215Z,8.68
2022-11-03T01:22:18.982Z,8.68
2022-11-03T01:24:45.836Z,8.69
2022-11-03T01:27:18.210Z,8.69
2022-11-03T01:29:47.963Z,8.69
2022-11-03T01:32:15.117Z,8.68
2022-11-03T01:34:41.628Z,8.69
2022-11-03T01:37:08.121Z,8.71
2022-11-03T01:39:34.729Z,8.72
2022-11-03T01:42:01.921Z,8.73
2022-11-03T01:44:29.646Z,8.75
2022-11-03T01:47:15.525Z,8.77
2022-11-03T01:49:48.038Z,8.80
2022-11-03T01:52:34.041Z,8.84
2022-11-03T01:55:04.994Z,8.88
2022-11-03T01:57:37.871Z,8.91
2022-11-03T02:00:06.563Z,8.92
2022-11-03T02:02:33.103Z,8.93
2022-11-03T02:05:02.509Z,8.92
2022-11-03T02:07:45.925Z,8.89
2022-11-03T02:10:12.833Z,8.85
2022-11-03T02:12:39.410Z,8.80
2022-11-03T02:15:09.293Z,8.77
2022-11-03T02:17:37.429Z,8.76
2022-11-03T02:20:13.948Z,8.78
2022-11-03T02:22:48.814Z,8.81
2022-11-03T02:25:35.633Z,8.84
2022-11-03T02:28:03.977Z,8.90
2022-11-03T02:30:59.658Z,8.92
2022-11-03T02:33:35.689Z,8.94
2022-11-03T02:36:05.129Z,8.94
2022-11-03T02:38:36.273Z,8.95
2022-11-03T02:41:08.094Z,8.95
2022-11-03T02:43:37.345Z,8.93
2022-11-03T02:46:14.420Z,8.92
2022-11-03T02:48:41.896Z,8.91
2022-11-03T02:51:13.759Z,8.91
2022-11-03T02:54:02.288Z,8.89
2022-11-03T02:56:31.102Z,8.88
2022-11-03T02:59:02.680Z,8.90
2022-11-03T03:01:59.456Z,8.92
2022-11-03T03:04:35.643Z,8.95
2022-11-03T03:07:08.920Z,8.99
2022-11-03T03:12:26.714Z,9.08
2022-11-03T03:14:57.968Z,9.10
2022-11-03T03:17:34.377Z,9.13
2022-11-03T03:20:17.534Z,9.15
2022-11-03T03:23:11.292Z,9.18
2022-11-03T03:25:46.845Z,9.19
2022-11-03T03:28:20.068Z,9.20
2022-11-03T03:30:48.351Z,9.20
2022-11-03T03:33:16.976Z,9.19
2022-11-03T03:35:48.804Z,9.18
2022-11-03T03:38:19.143Z,9.17
2022-11-03T03:40:50.864Z,9.15
2022-11-03T03:43:20.053Z,9.12
2022-11-03T03:45:49.302Z,9.09
2022-11-03T03:48:15.791Z,9.07
2022-11-03T03:50:44.338Z,9.04
2022-11-03T03:53:13.249Z,9.00
2022-11-03T03:55:43.351Z,8.93
2022-11-03T03:58:14.016Z,8.84
2022-11-03T04:00:44.879Z,8.76
2022-11-03T04:03:21.319Z,8.70
2022-11-03T04:05:48.388Z,8.64
2022-11-03T04:08:19.795Z,8.58
2022-11-03T04:11:06.499Z,8.52
2022-11-03T04:13:52.751Z,8.47
2022-11-03T04:16:39.847Z,8.44
2022-11-03T04:22:25.722Z,8.38
2022-11-03T04:24:52.396Z,8.38
2022-11-03T04:27:18.750Z,8.37
2022-11-03T04:29:48.569Z,8.38
2022-11-03T04:32:17.609Z,8.39
2022-11-03T04:34:48.568Z,8.39
2022-11-03T04:37:15.829Z,8.39
2022-11-03T04:42:19.757Z,8.41
2022-11-03T04:44:48.081Z,8.42
2022-11-03T04:47:23.740Z,8.42
2022-11-03T04:49:55.362Z,8.43
2022-11-03T04:52:27.298Z,8.45
2022-11-03T04:55:04.121Z,8.47
2022-11-03T04:57:37.914Z,8.51
2022-11-03T05:00:21.910Z,8.53
2022-11-03T05:02:59.790Z,8.55
2022-11-03T05:05:33.706Z,8.58
2022-11-03T05:08:00.201Z,8.61
2022-11-03T05:10:29.363Z,8.62
2022-11-03T05:12:57.829Z,8.64
2022-11-03T05:15:30.071Z,8.65
2022-11-03T05:18:00.217Z,8.66
2022-11-03T05:20:36.175Z,8.69
2022-11-03T05:23:11.318Z,8.69
2022-11-03T05:25:44.172Z,8.71
2022-11-03T05:28:22.320Z,8.72
2022-11-03T05:30:59.681Z,8.74
2022-11-03T05:33:36.658Z,8.76
2022-11-03T05:36:20.375Z,8.76
2022-11-03T05:38:54.113Z,8.76
2022-11-03T05:41:27.153Z,8.76
2022-11-03T05:43:58.697Z,8.77
2022-11-03T05:46:31.876Z,8.76
2022-11-03T05:49:02.894Z,8.77
2022-11-03T05:51:34.925Z,8.76
2022-11-03T05:54:04.971Z,8.76
2022-11-03T05:56:33.542Z,8.75
2022-11-03T05:59:01.870Z,8.75
2022-11-03T06:01:32.191Z,8.74
2022-11-03T06:04:28.683Z,8.72
2022-11-03T06:07:30.975Z,8.72
2022-11-03T06:10:01.401Z,8.71
2022-11-03T06:12:39.129Z,8.70
2022-11-03T06:15:22.096Z,8.68
2022-11-03T06:17:50.044Z,8.66
2022-11-03T06:20:21.258Z,8.63
2022-11-03T06:22:49.305Z,8.63
2022-11-03T06:25:34.425Z,8.62
2022-11-03T06:28:10.318Z,8.63
2022-11-03T06:30:44.602Z,8.63
2022-11-03T06:33:38.548Z,8.62
2022-11-03T06:36:37.583Z,8.62
2022-11-03T06:39:24.941Z,8.61
2022-11-03T06:42:03.106Z,8.61
2022-11-03T06:44:30.138Z,8.62
2022-11-03T06:47:01.520Z,8.64
2022-11-03T06:49:31.078Z,8.67
2022-11-03T06:52:02.113Z,8.71
2022-11-03T06:54:28.616Z,8.74
2022-11-03T06:56:55.169Z,8.77
2022-11-03T06:59:21.631Z,8.80
2022-11-03T07:01:54.568Z,8.84
2022-11-03T07:04:23.905Z,8.87
2022-11-03T07:06:53.590Z,8.89
2022-11-03T07:09:24.188Z,8.92
2022-11-03T07:11:57.731Z,8.92
2022-11-03T07:14:33.842Z,8.93
2022-11-03T07:17:02.492Z,8.95
2022-11-03T07:19:45.543Z,8.98
2022-11-03T07:22:15.032Z,9.03
2022-11-03T07:24:45.827Z,9.07
2022-11-03T07:27:25.762Z,9.12
2022-11-03T07:29:57.655Z,9.16
2022-11-03T07:32:31.289Z,9.23
2022-11-03T07:35:16.699Z,9.30
2022-11-03T07:37:48.671Z,9.38
2022-11-03T07:40:26.055Z,9.46
2022-11-03T07:42:57.785Z,9.54
2022-11-03T07:45:42.794Z,9.61
2022-11-03T07:48:23.073Z,9.68
2022-11-03T07:51:01.296Z,9.76
2022-11-03T07:53:42.047Z,9.84
2022-11-03T07:56:22.546Z,9.91
2022-11-03T07:58:59.531Z,10.00
2022-11-03T08:01:30.263Z,10.08
2022-11-03T08:04:01.960Z,10.16
2022-11-03T08:06:28.603Z,10.23
2022-11-03T08:08:56.061Z,10.29
2022-11-03T08:11:27.828Z,10.36
2022-11-03T08:13:56.266Z,10.45
2022-11-03T08:16:22.826Z,10.55
2022-11-03T08:18:49.380Z,10.64
2022-11-03T08:21:17.358Z,10.71
2022-11-03T08:23:47.355Z,10.80
2022-11-03T08:26:15.132Z,10.90
2022-11-03T08:28:41.806Z,10.97
2022-11-03T08:31:12.665Z,11.06
2022-11-03T08:33:40.546Z,11.16
2022-11-03T08:36:08.890Z,11.25
2022-11-03T08:38:36.035Z,11.33
2022-11-03T08:41:04.064Z,11.37
2022-11-03T08:43:30.605Z,11.43
2022-11-03T08:46:03.450Z,11.50
2022-11-03T08:48:37.026Z,11.61
2022-11-03T08:51:03.726Z,11.71
2022-11-03T08:53:30.394Z,11.81
2022-11-03T08:55:56.925Z,11.88
2022-11-03T08:58:23.514Z,11.94
2022-11-03T09:00:50.362Z,12.00
2022-11-03T09:03:17.183Z,12.07
2022-11-03T09:05:43.924Z,12.13
2022-11-03T09:10:57.337Z,12.24
2022-11-03T09:13:23.858Z,12.32
2022-11-03T09:15:50.473Z,12.39
2022-11-03T09:18:17.733Z,12.48
2022-11-03T09:20:44.349Z,12.59
2022-11-03T09:23:10.954Z,12.71
2022-11-03T09:25:38.721Z,12.76
2022-11-03T09:28:05.772Z,12.85
2022-11-03T09:30:32.750Z,12.93
2022-11-03T09:32:59.273Z,13.00
2022-11-03T09:35:26.205Z,13.08
2022-11-03T09:37:52.621Z,13.22
2022-11-03T09:40:19.672Z,13.35
2022-11-03T09:42:46.189Z,13.46
2022-11-03T09:45:13.329Z,13.51
2022-11-03T09:47:42.623Z,13.60
2022-11-03T09:50:20.229Z,13.69
2022-11-03T09:52:51.595Z,13.82
2022-11-03T09:55:24.035Z,14.00
2022-11-03T09:57:53.297Z,14.11
2022-11-03T10:00:22.061Z,14.19
2022-11-03T10:02:49.781Z,14.25
2022-11-03T10:05:22.826Z,14.39
2022-11-03T10:07:50.523Z,14.47
2022-11-03T10:10:20.460Z,14.54
2022-11-03T10:12:49.363Z,14.50
2022-11-03T10:15:17.742Z,14.46
2022-11-03T10:17:46.127Z,14.44
2022-11-03T10:20:15.311Z,14.44
2022-11-03T10:22:44.361Z,14.36
2022-11-03T10:25:36.092Z,14.33
2022-11-03T10:28:18.422Z,14.30
2022-11-03T10:31:12.768Z,14.26
2022-11-03T10:34:01.529Z,14.21
2022-11-03T10:36:36.295Z,14.20
2022-11-03T10:39:24.303Z,14.20
2022-11-03T10:41:58.853Z,14.27
2022-11-03T10:44:30.160Z,14.31
2022-11-03T10:47:02.854Z,14.31
2022-11-03T10:49:39.357Z,14.30
2022-11-03T10:52:21.250Z,14.24
2022-11-03T10:54:48.534Z,14.22
2022-11-03T10:57:16.150Z,14.21
2022-11-03T10:59:45.120Z,14.15
2022-11-03T11:02:24.610Z,14.19
2022-11-03T11:05:02.420Z,14.20
2022-11-03T11:07:34.924Z,14.21
2022-11-03T11:10:18.037Z,14.26
2022-11-03T11:13:23.334Z,14.26
2022-11-03T11:15:51.225Z,14.28
2022-11-03T11:18:30.098Z,14.26
2022-11-03T11:21:01.660Z,14.25
2022-11-03T11:23:28.098Z,14.30
2022-11-03T11:26:10.233Z,14.36
2022-11-03T11:28:42.417Z,14.44
2022-11-03T11:31:27.261Z,14.57
2022-11-03T11:34:23.645Z,14.72
2022-11-03T11:36:56.255Z,14.81
2022-11-03T11:39:28.846Z,14.89
2022-11-03T11:42:04.511Z,14.98
2022-11-03T11:44:40.281Z,15.05
2022-11-03T11:47:24.002Z,15.09
2022-11-03T11:50:16.351Z,15.19
2022-11-03T11:52:46.212Z,15.12
2022-11-03T11:55:25.094Z,15.09
2022-11-03T11:57:53.034Z,15.05
2022-11-03T12:00:25.970Z,14.99
2022-11-03T12:02:56.399Z,14.95
2022-11-03T12:05:27.831Z,14.88
2022-11-03T12:07:55.417Z,14.84
2022-11-03T12:10:27.516Z,14.76
2022-11-03T12:12:55.584Z,14.80
2022-11-03T12:15:54.622Z,14.83
2022-11-03T12:18:40.865Z,14.84
2022-11-03T12:21:33.531Z,14.85
2022-11-03T12:23:59.960Z,14.88
2022-11-03T12:26:29.110Z,14.84
2022-11-03T12:28:56.130Z,14.79
2022-11-03T12:31:22.654Z,14.73
2022-11-03T12:33:49.233Z,14.66
2022-11-03T12:36:15.747Z,14.63
2022-11-03T12:38:42.557Z,14.56
2022-11-03T12:41:27.348Z,14.50
2022-11-03T12:43:56.008Z,14.41
2022-11-03T12:46:23.768Z,14.34
2022-11-03T12:48:51.271Z,14.32
2022-11-03T12:51:22.640Z,14.33
2022-11-03T12:53:50.031Z,14.33
2022-11-03T12:56:17.949Z,14.31
2022-11-03T12:58:45.187Z,14.31
2022-11-03T13:01:12.235Z,14.32
2022-11-03T13:03:38.886Z,14.29
2022-11-03T13:06:09.931Z,14.29
2022-11-03T13:08:37.301Z,14.24
2022-11-03T13:11:04.732Z,14.22
2022-11-03T13:13:32.834Z,14.22
2022-11-03T13:15:59.316Z,14.22
2022-11-03T13:18:25.908Z,14.24
2022-11-03T13:20:52.417Z,14.25
2022-11-03T13:23:22.862Z,14.26
2022-11-03T13:25:49.984Z,14.24
2022-11-03T13:28:16.466Z,14.24
2022-11-03T13:30:42.915Z,14.21
2022-11-03T13:33:09.840Z,14.21
2022-11-03T13:35:36.657Z,14.19
2022-11-03T13:38:03.233Z,14.18
2022-11-03T13:40:54.807Z,14.17
2022-11-03T13:43:16.554Z,14.18
2022-11-03T13:45:43.164Z,14.19
2022-11-03T13:49:04.056Z,14.17
2022-11-03T13:50:57.137Z,14.17
2022-11-03T13:56:16.884Z,14.10
2022-11-03T14:01:35.156Z,14.02
2022-11-03T14:06:48.438Z,13.89
2022-11-03T14:09:14.897Z,13.84
2022-11-03T14:12:00.153Z,13.80
2022-11-03T14:14:26.692Z,13.74
2022-11-03T14:16:53.190Z,13.72
2022-11-03T14:19:19.999Z,13.71
2022-11-03T14:21:46.564Z,13.70
2022-11-03T14:24:13.001Z,13.70
2022-11-03T14:26:42.682Z,13.71
2022-11-03T14:29:10.241Z,13.72
2022-11-03T14:31:36.854Z,13.72
2022-11-03T14:34:03.418Z,13.73
2022-11-03T14:36:29.954Z,13.72
2022-11-03T14:38:56.525Z,13.70
2022-11-03T14:41:41.981Z,13.70
2022-11-03T14:44:08.556Z,13.66
2022-11-03T14:46:35.003Z,13.62
2022-11-03T14:49:04.312Z,13.57
2022-11-03T14:51:31.344Z,13.50
2022-11-03T14:53:58.459Z,13.47
2022-11-03T14:56:24.937Z,13.42
2022-11-03T14:58:52.007Z,13.37
2022-11-03T15:01:19.815Z,13.32
2022-11-03T15:03:47.040Z,13.27
2022-11-03T15:06:13.759Z,13.21
2022-11-03T15:08:40.301Z,13.19
2022-11-03T15:11:09.270Z,13.16
2022-11-03T15:13:41.649Z,13.14
2022-11-03T15:16:13.428Z,13.10
2022-11-03T15:18:39.930Z,13.02
2022-11-03T15:21:06.529Z,12.91
2022-11-03T15:26:19.702Z,12.87
2022-11-03T15:28:46.172Z,12.84
2022-11-03T15:31:12.595Z,12.79
2022-11-03T15:33:39.254Z,12.72
2022-11-03T15:36:07.601Z,12.65
2022-11-03T15:38:34.548Z,12.58
2022-11-03T15:41:16.871Z,12.53
2022-11-03T15:43:45.458Z,12.44
2022-11-03T15:46:13.971Z,12.41
2022-11-03T15:48:42.079Z,12.39
2022-11-03T15:51:08.905Z,12.38
2022-11-03T15:53:35.612Z,12.36
2022-11-03T15:56:02.720Z,12.35
2022-11-03T15:58:33.301Z,12.36
2022-11-03T16:01:03.404Z,12.36
2022-11-03T16:03:31.958Z,12.36
2022-11-03T16:05:59.164Z,12.35
2022-11-03T16:08:25.817Z,12.33
2022-11-03T16:10:57.590Z,12.29
2022-11-03T16:13:25.067Z,12.25
2022-11-03T16:15:53.177Z,12.23
2022-11-03T16:18:19.719Z,12.22
2022-11-03T16:20:46.319Z,12.18
2022-11-03T16:23:13.147Z,12.13
2022-11-03T16:25:39.720Z,12.09
2022-11-03T16:28:08.002Z,12.03
2022-11-03T16:30:41.148Z,12.00
2022-11-03T16:33:07.793Z,11.95
2022-11-03T16:35:34.692Z,11.91
2022-11-03T16:38:01.232Z,11.88
2022-11-03T16:40:28.204Z,11.86
2022-11-03T16:42:54.763Z,11.84
2022-11-03T16:45:23.728Z,11.82
2022-11-03T16:47:50.843Z,11.81
2022-11-03T16:50:18.431Z,11.79
2022-11-03T16:52:46.734Z,11.77
2022-11-03T16:55:15.297Z,11.75
2022-11-03T16:57:42.115Z,11.73
2022-11-03T17:00:15.111Z,11.71
2022-11-03T17:02:42.336Z,11.69
2022-11-03T17:05:11.768Z,11.68
2022-11-03T17:07:38.302Z,11.67
2022-11-03T17:10:07.026Z,11.66
2022-11-03T17:12:33.724Z,11.65
2022-11-03T17:15:00.214Z,11.63
2022-11-03T17:17:26.728Z,11.65
2022-11-03T17:19:53.330Z,11.65
2022-11-03T17:22:22.659Z,11.62
2022-11-03T17:24:49.978Z,11.61
2022-11-03T17:27:28.009Z,11.60
2022-11-03T17:30:00.518Z,11.57
2022-11-03T17:32:30.761Z,11.59
2022-11-03T17:34:58.590Z,11.60
2022-11-03T17:37:26.204Z,11.60
2022-11-03T17:39:52.991Z,11.61
2022-11-03T17:42:27.302Z,11.61
2022-11-03T17:44:56.595Z,11.63
2022-11-03T17:47:24.441Z,11.63
2022-11-03T17:49:51.562Z,11.64
2022-11-03T17:52:27.965Z,11.63
2022-11-03T17:54:57.585Z,11.63
2022-11-03T17:57:25.961Z,11.62
2022-11-03T17:59:55.757Z,11.62
2022-11-03T18:02:28.060Z,11.60
2022-11-03T18:05:22.131Z,11.58
2022-11-03T18:07:50.153Z,11.55
2022-11-03T18:10:16.832Z,11.55
2022-11-03T18:13:05.498Z,11.53
2022-11-03T18:15:34.160Z,11.52
2022-11-03T18:18:02.226Z,11.51
2022-11-03T18:20:31.018Z,11.48
2022-11-03T18:23:14.453Z,11.46
2022-11-03T18:25:41.120Z,11.42
2022-11-03T18:28:08.200Z,11.40
2022-11-03T18:30:34.972Z,11.37
2022-11-03T18:33:01.590Z,11.33
2022-11-03T18:35:32.460Z,11.27
2022-11-03T18:37:59.124Z,11.22
2022-11-03T18:40:25.902Z,11.18
2022-11-03T18:42:52.389Z,11.15
2022-11-03T18:45:20.083Z,11.11
2022-11-03T18:47:46.532Z,11.08
2022-11-03T18:50:16.568Z,11.03
2022-11-03T18:52:47.641Z,11.00
2022-11-03T18:55:18.028Z,10.96
2022-11-03T18:57:44.834Z,10.95
2022-11-03T19:00:30.263Z,10.94
2022-11-03T19:02:56.805Z,10.93
2022-11-03T19:05:23.506Z,10.94
2022-11-03T19:07:50.643Z,10.96
2022-11-03T19:10:22.293Z,10.97
2022-11-03T19:12:49.016Z,11.01
2022-11-03T19:15:24.855Z,11.06
2022-11-03T19:17:56.761Z,11.10
2022-11-03T19:20:25.436Z,11.15
2022-11-03T19:22:52.788Z,11.19
2022-11-03T19:25:19.422Z,11.23
2022-11-03T19:27:47.762Z,11.27
2022-11-03T19:30:18.087Z,11.28
2022-11-03T19:32:51.681Z,11.29
2022-11-03T19:35:24.151Z,11.31
2022-11-03T19:38:00.261Z,11.32
2022-11-03T19:40:26.839Z,11.37
2022-11-03T19:42:53.443Z,11.41
2022-11-03T19:45:20.918Z,11.46
2022-11-03T19:50:48.176Z,11.60
2022-11-03T19:53:28.054Z,11.67
2022-11-03T19:55:56.012Z,11.73
2022-11-03T19:58:25.567Z,11.78
2022-11-03T20:00:53.393Z,11.82
2022-11-03T20:03:20.431Z,11.87
2022-11-03T20:05:49.786Z,11.88
2022-11-03T20:08:20.259Z,11.90
2022-11-03T20:10:48.195Z,11.92
2022-11-03T20:13:21.861Z,11.93
2022-11-03T20:15:48.456Z,11.94
2022-11-03T20:18:15.531Z,11.93
2022-11-03T20:20:44.410Z,11.92
2022-11-03T20:23:25.922Z,11.91
2022-11-03T20:25:53.555Z,11.86
2022-11-03T20:28:25.023Z,11.81
2022-11-03T20:30:52.811Z,11.78
2022-11-03T20:33:22.121Z,11.77
2022-11-03T20:35:51.239Z,11.74
2022-11-03T20:38:19.599Z,11.73
2022-11-03T20:40:48.135Z,11.69
2022-11-03T20:43:37.823Z,11.67
2022-11-03T20:46:24.355Z,11.63
2022-11-03T20:48:51.695Z,11.60
2022-11-03T20:51:21.199Z,11.57
2022-11-03T20:53:48.264Z,11.54
2022-11-03T20:56:19.566Z,11.51
2022-11-03T20:58:47.327Z,11.49
2022-11-03T21:01:22.838Z,11.49
2022-11-03T21:04:05.392Z,11.46
2022-11-03T21:06:32.941Z,11.42
2022-11-03T21:09:00.137Z,11.40
2022-11-03T21:11:29.758Z,11.38
2022-11-03T21:14:00.132Z,11.36
2022-11-03T21:16:47.590Z,11.33
2022-11-03T21:19:43.088Z,11.31
2022-11-03T21:22:46.218Z,11.31
2022-11-03T21:25:18.777Z,11.35
2022-11-03T21:27:45.786Z,11.42
2022-11-03T21:30:14.410Z,11.49
2022-11-03T21:32:40.962Z,11.57
2022-11-03T21:35:13.442Z,11.65
2022-11-03T21:37:39.955Z,11.74
2022-11-03T21:40:06.999Z,11.84
2022-11-03T21:42:55.279Z,11.93
2022-11-03T21:45:21.861Z,12.00
2022-11-03T21:48:13.138Z,12.03
2022-11-03T21:50:40.676Z,12.04
2022-11-03T21:53:07.487Z,12.05
2022-11-03T21:55:34.495Z,12.05
2022-11-03T21:58:02.116Z,12.02
2022-11-03T22:00:28.941Z,12.00
2022-11-03T22:02:56.023Z,11.97
2022-11-03T22:05:22.791Z,11.94
2022-11-03T22:07:49.228Z,11.92
2022-11-03T22:10:15.963Z,11.89
2022-11-03T22:12:42.474Z,11.88
2022-11-03T22:15:27.881Z,11.85
2022-11-03T22:18:01.058Z,11.80
2022-11-03T22:20:46.127Z,11.75
2022-11-03T22:23:34.169Z,11.71
2022-11-03T22:26:19.609Z,11.68
2022-11-03T22:28:46.062Z,11.66
2022-11-03T22:31:31.042Z,11.67
2022-11-03T22:34:16.052Z,11.68
2022-11-03T22:36:42.741Z,11.68
2022-11-03T22:39:27.968Z,11.67
2022-11-03T22:42:13.169Z,11.66
2022-11-03T22:44:58.174Z,11.63
2022-11-03T22:47:26.400Z,11.62
2022-11-03T22:49:52.795Z,11.60
2022-11-03T22:52:19.523Z,11.59
2022-11-03T22:54:45.991Z,11.58
2022-11-03T22:57:13.247Z,11.57
2022-11-03T22:59:39.851Z,11.53
2022-11-03T23:02:06.462Z,11.48
2022-11-03T23:04:33.178Z,11.41
2022-11-03T23:06:59.818Z,11.35
2022-11-03T23:09:26.322Z,11.32
2022-11-03T23:11:52.933Z,11.32
2022-11-03T23:14:21.096Z,11.32
2022-11-03T23:16:47.560Z,11.31
2022-11-03T23:19:34.029Z,11.30
2022-11-03T23:22:01.661Z,11.27
2022-11-03T23:24:46.954Z,11.26
2022-11-03T23:27:15.915Z,11.25
2022-11-03T23:29:42.400Z,11.25
2022-11-03T23:32:08.836Z,11.23
2022-11-03T23:34:35.615Z,11.22
2022-11-03T23:37:02.844Z,11.22
2022-11-03T23:39:29.330Z,11.22
2022-11-03T23:41:55.809Z,11.22
2022-11-03T23:44:22.227Z,11.21
2022-11-03T23:47:07.399Z,11.20
2022-11-03T23:49:33.849Z,11.20
2022-11-03T23:52:00.374Z,11.19
2022-11-03T23:54:27.424Z,11.19
2022-11-03T23:57:12.714Z,11.21
2022-11-03T23:59:42.171Z,11.25
